sensor_id;sensor_type;location;lat;lon;timestamp;pressure;altitude;pressure_sealevel;temperature;humidity
6899;BME280;3488;42.616;23.350;2023-03-19T00:02:12;62109.13;;;1.05;74.16
6899;BME280;3488;42.616;23.350;2023-03-19T00:04:39;62104.56;;;1.03;73.86
6899;BME280;3488;42.616;23.350;2023-03-19T00:07:06;62102.53;;;1.01;74.47
6899;BME280;3488;42.616;23.350;2023-03-19T00:09:34;62102.53;;;1.01;75.01
6899;BME280;3488;42.616;23.350;2023-03-19T00:12:01;62106.56;;;1.03;74.88
6899;BME280;3488;42.616;23.350;2023-03-19T00:14:28;62103.50;;;1.00;75.40
6899;BME280;3488;42.616;23.350;2023-03-19T00:16:56;62101.00;;;1.00;75.63
6899;BME280;3488;42.616;23.350;2023-03-19T00:19:23;62097.41;;;0.96;76.14
6899;BME280;3488;42.616;23.350;2023-03-19T00:21:50;62100.84;;;0.95;76.55
6899;BME280;3488;42.616;23.350;2023-03-19T00:24:16;62096.31;;;0.93;77.43
6899;BME280;3488;42.616;23.350;2023-03-19T00:26:45;62099.91;;;0.96;76.34
6899;BME280;3488;42.616;23.350;2023-03-19T00:29:12;62093.34;;;0.95;75.51
6899;BME280;3488;42.616;23.350;2023-03-19T00:31:40;62093.84;;;0.95;74.83
6899;BME280;3488;42.616;23.350;2023-03-19T00:34:08;62101.94;;;0.98;74.63
6899;BME280;3488;42.616;23.350;2023-03-19T00:36:36;62100.41;;;0.97;74.90
6899;BME280;3488;42.616;23.350;2023-03-19T00:39:03;62101.00;;;1.00;75.38
6899;BME280;3488;42.616;23.350;2023-03-19T00:41:30;62099.94;;;0.99;75.46
6899;BME280;3488;42.616;23.350;2023-03-19T00:43:59;62106.50;;;1.00;75.57
6899;BME280;3488;42.616;23.350;2023-03-19T00:46:26;62098.94;;;0.98;74.54
6899;BME280;3488;42.616;23.350;2023-03-19T00:48:53;62106.63;;;1.05;73.80
6899;BME280;3488;42.616;23.350;2023-03-19T00:51:22;62107.59;;;1.04;73.30
6899;BME280;3488;42.616;23.350;2023-03-19T00:53:49;62107.59;;;1.04;73.57
6899;BME280;3488;42.616;23.350;2023-03-19T00:56:18;62104.44;;;0.98;74.08
6899;BME280;3488;42.616;23.350;2023-03-19T00:58:45;62102.53;;;1.01;73.07
6899;BME280;3488;42.616;23.350;2023-03-19T01:01:16;62104.97;;;0.99;73.39
6899;BME280;3488;42.616;23.350;2023-03-19T01:03:43;62100.47;;;0.99;73.12
6899;BME280;3488;42.616;23.350;2023-03-19T01:06:11;62097.41;;;0.96;73.40
6899;BME280;3488;42.616;23.350;2023-03-19T01:08:38;62095.41;;;0.97;73.48
6899;BME280;3488;42.616;23.350;2023-03-19T01:11:06;62096.88;;;0.96;73.51
6899;BME280;3488;42.616;23.350;2023-03-19T01:13:34;62099.94;;;0.99;73.35
6899;BME280;3488;42.616;23.350;2023-03-19T01:16:02;62095.34;;;0.94;72.55
6899;BME280;3488;42.616;23.350;2023-03-19T01:18:30;62101.44;;;0.98;72.19
6899;BME280;3488;42.616;23.350;2023-03-19T01:20:57;62097.41;;;0.96;72.70
6899;BME280;3488;42.616;23.350;2023-03-19T01:23:24;62098.34;;;0.95;73.59
6899;BME280;3488;42.616;23.350;2023-03-19T01:25:51;62091.81;;;0.93;73.09
6899;BME280;3488;42.616;23.350;2023-03-19T01:28:18;62097.28;;;0.91;73.74
6899;BME280;3488;42.616;23.350;2023-03-19T01:30:46;62093.75;;;0.90;74.33
6899;BME280;3488;42.616;23.350;2023-03-19T01:33:13;62090.16;;;0.87;74.82
6899;BME280;3488;42.616;23.350;2023-03-19T01:35:44;62087.59;;;0.84;75.77
6899;BME280;3488;42.616;23.350;2023-03-19T01:38:12;62080.88;;;0.75;76.61
6899;BME280;3488;42.616;23.350;2023-03-19T01:40:43;62067.06;;;0.64;79.38
6899;BME280;3488;42.616;23.350;2023-03-19T01:43:15;62069.09;;;0.64;79.19
6899;BME280;3488;42.616;23.350;2023-03-19T01:45:43;62062.41;;;0.57;79.89
6899;BME280;3488;42.616;23.350;2023-03-19T01:48:26;62060.88;;;0.56;79.80
6899;BME280;3488;42.616;23.350;2023-03-19T01:50:56;62050.81;;;0.53;79.41
6899;BME280;3488;42.616;23.350;2023-03-19T01:53:25;62053.31;;;0.53;80.06
6899;BME280;3488;42.616;23.350;2023-03-19T01:55:56;62058.31;;;0.53;80.19
6899;BME280;3488;42.616;23.350;2023-03-19T01:58:25;62059.97;;;0.60;79.68
6899;BME280;3488;42.616;23.350;2023-03-19T02:00:52;62059.91;;;0.57;79.63
6899;BME280;3488;42.616;23.350;2023-03-19T02:03:20;62064.97;;;0.60;78.87
6899;BME280;3488;42.616;23.350;2023-03-19T02:05:48;62065.03;;;0.62;78.07
6899;BME280;3488;42.616;23.350;2023-03-19T02:08:19;62056.31;;;0.54;77.77
6899;BME280;3488;42.616;23.350;2023-03-19T02:10:49;62068.13;;;0.65;75.56
6899;BME280;3488;42.616;23.350;2023-03-19T02:13:18;62066.63;;;0.66;75.35
6899;BME280;3488;42.616;23.350;2023-03-19T02:15:45;62067.59;;;0.65;76.50
6899;BME280;3488;42.616;23.350;2023-03-19T02:18:13;62069.56;;;0.64;76.49
6899;BME280;3488;42.616;23.350;2023-03-19T02:20:45;62059.50;;;0.62;77.24
6899;BME280;3488;42.616;23.350;2023-03-19T02:23:22;62066.09;;;0.66;77.40
6899;BME280;3488;42.616;23.350;2023-03-19T02:26:01;62070.09;;;0.65;77.33
6899;BME280;3488;42.616;23.350;2023-03-19T02:28:29;62074.13;;;0.66;77.21
6899;BME280;3488;42.616;23.350;2023-03-19T02:30:57;62067.66;;;0.67;76.31
6899;BME280;3488;42.616;23.350;2023-03-19T02:33:24;62069.19;;;0.69;76.44
6899;BME280;3488;42.616;23.350;2023-03-19T02:35:52;62064.53;;;0.62;77.74
6899;BME280;3488;42.616;23.350;2023-03-19T02:38:19;62060.00;;;0.62;77.86
6899;BME280;3488;42.616;23.350;2023-03-19T02:40:51;62061.50;;;0.61;78.38
6899;BME280;3488;42.616;23.350;2023-03-19T02:43:21;62070.09;;;0.65;79.03
6899;BME280;3488;42.616;23.350;2023-03-19T02:45:48;62053.31;;;0.53;79.39
6899;BME280;3488;42.616;23.350;2023-03-19T02:48:15;62055.47;;;0.60;80.43
6899;BME280;3488;42.616;23.350;2023-03-19T02:50:43;62062.47;;;0.60;80.04
6899;BME280;3488;42.616;23.350;2023-03-19T02:53:10;62058.44;;;0.58;79.82
6899;BME280;3488;42.616;23.350;2023-03-19T02:55:37;62060.41;;;0.58;80.12
6899;BME280;3488;42.616;23.350;2023-03-19T02:58:04;62061.44;;;0.59;80.24
6899;BME280;3488;42.616;23.350;2023-03-19T03:00:32;62060.88;;;0.56;79.32
6899;BME280;3488;42.616;23.350;2023-03-19T03:03:00;62066.56;;;0.64;78.02
6899;BME280;3488;42.616;23.350;2023-03-19T03:05:27;62070.66;;;0.68;75.66
6899;BME280;3488;42.616;23.350;2023-03-19T03:07:54;62063.16;;;0.68;74.80
6899;BME280;3488;42.616;23.350;2023-03-19T03:10:21;62073.25;;;0.70;75.54
6899;BME280;3488;42.616;23.350;2023-03-19T03:12:48;62076.31;;;0.73;75.47
6899;BME280;3488;42.616;23.350;2023-03-19T03:15:15;62075.75;;;0.70;75.25
6899;BME280;3488;42.616;23.350;2023-03-19T03:17:44;62075.28;;;0.72;75.27
6899;BME280;3488;42.616;23.350;2023-03-19T03:20:13;62071.69;;;0.69;75.83
6899;BME280;3488;42.616;23.350;2023-03-19T03:22:40;62074.78;;;0.72;76.33
6899;BME280;3488;42.616;23.350;2023-03-19T03:25:08;62072.66;;;0.67;76.58
6899;BME280;3488;42.616;23.350;2023-03-19T03:27:36;62068.59;;;0.66;77.41
6899;BME280;3488;42.616;23.350;2023-03-19T03:30:04;62062.06;;;0.64;77.80
6899;BME280;3488;42.616;23.350;2023-03-19T03:32:33;62065.09;;;0.65;78.10
6899;BME280;3488;42.616;23.350;2023-03-19T03:35:01;62063.03;;;0.63;78.15
6899;BME280;3488;42.616;23.350;2023-03-19T03:37:28;62060.97;;;0.61;78.06
6899;BME280;3488;42.616;23.350;2023-03-19T03:39:55;62055.41;;;0.58;78.34
6899;BME280;3488;42.616;23.350;2023-03-19T03:42:22;62054.84;;;0.55;78.09
6899;BME280;3488;42.616;23.350;2023-03-19T03:44:49;62053.88;;;0.56;78.76
6899;BME280;3488;42.616;23.350;2023-03-19T03:47:16;62060.97;;;0.61;79.01
6899;BME280;3488;42.616;23.350;2023-03-19T03:49:43;62059.91;;;0.57;78.59
6899;BME280;3488;42.616;23.350;2023-03-19T03:52:11;62052.22;;;0.50;79.53
6899;BME280;3488;42.616;23.350;2023-03-19T03:54:38;62041.13;;;0.46;79.75
6899;BME280;3488;42.616;23.350;2023-03-19T03:57:05;62046.56;;;0.44;80.29
6899;BME280;3488;42.616;23.350;2023-03-19T03:59:33;62034.84;;;0.35;80.83
6899;BME280;3488;42.616;23.350;2023-03-19T04:02:00;62042.47;;;0.40;80.63
6899;BME280;3488;42.616;23.350;2023-03-19T04:04:28;62039.97;;;0.40;80.93
6899;BME280;3488;42.616;23.350;2023-03-19T04:06:55;62029.78;;;0.33;81.37
6899;BME280;3488;42.616;23.350;2023-03-19T04:09:23;62027.66;;;0.28;nan
6899;BME280;3488;42.616;23.350;2023-03-19T04:11:50;62024.06;;;0.25;83.60
6899;BME280;3488;42.616;23.350;2023-03-19T04:14:17;62017.88;;;0.16;85.52
6899;BME280;3488;42.616;23.350;2023-03-19T04:16:44;62016.34;;;0.15;85.53
6899;BME280;3488;42.616;23.350;2023-03-19T04:19:11;62001.59;;;0.05;86.88
6899;BME280;3488;42.616;23.350;2023-03-19T04:21:38;61996.94;;;-0.02;87.21
6899;BME280;3488;42.616;23.350;2023-03-19T04:24:06;61990.38;;;-0.04;87.57
6899;BME280;3488;42.616;23.350;2023-03-19T04:26:35;61999.38;;;-0.05;87.84
6899;BME280;3488;42.616;23.350;2023-03-19T04:29:03;61982.25;;;-0.09;87.99
6899;BME280;3488;42.616;23.350;2023-03-19T04:31:30;61987.19;;;-0.12;88.74
6899;BME280;3488;42.616;23.350;2023-03-19T04:33:56;61983.53;;;-0.18;89.24
6899;BME280;3488;42.616;23.350;2023-03-19T04:36:25;61985.09;;;-0.16;89.52
6899;BME280;3488;42.616;23.350;2023-03-19T04:38:52;61985.66;;;-0.13;89.18
6899;BME280;3488;42.616;23.350;2023-03-19T04:41:19;61986.63;;;-0.15;88.91
6899;BME280;3488;42.616;23.350;2023-03-19T04:43:48;61983.59;;;-0.15;89.11
6899;BME280;3488;42.616;23.350;2023-03-19T04:46:15;61989.16;;;-0.12;89.04
6899;BME280;3488;42.616;23.350;2023-03-19T04:48:42;61996.94;;;-0.02;89.13
6899;BME280;3488;42.616;23.350;2023-03-19T04:51:09;62001.00;;;0.02;89.48
6899;BME280;3488;42.616;23.350;2023-03-19T04:53:37;62004.59;;;0.06;89.59
6899;BME280;3488;42.616;23.350;2023-03-19T04:56:05;62004.66;;;0.08;89.63
6899;BME280;3488;42.616;23.350;2023-03-19T04:58:33;62019.34;;;0.15;89.99
6899;BME280;3488;42.616;23.350;2023-03-19T05:01:02;62027.09;;;0.25;89.97
6899;BME280;3488;42.616;23.350;2023-03-19T05:03:29;62034.28;;;0.32;89.99
6899;BME280;3488;42.616;23.350;2023-03-19T05:05:56;62045.94;;;0.39;89.37
6899;BME280;3488;42.616;23.350;2023-03-19T05:08:23;62057.84;;;0.55;88.43
6899;BME280;3488;42.616;23.350;2023-03-19T05:10:50;62065.03;;;0.62;88.53
6899;BME280;3488;42.616;23.350;2023-03-19T05:13:18;62070.28;;;0.72;88.85
6899;BME280;3488;42.616;23.350;2023-03-19T05:15:45;62085.13;;;0.87;87.10
6899;BME280;3488;42.616;23.350;2023-03-19T05:18:14;62095.34;;;0.94;86.74
6899;BME280;3488;42.616;23.350;2023-03-19T05:20:41;62123.91;;;1.15;82.86
6899;BME280;3488;42.616;23.350;2023-03-19T05:23:09;62130.22;;;1.29;81.35
6899;BME280;3488;42.616;23.350;2023-03-19T05:25:36;62135.34;;;1.34;83.83
6899;BME280;3488;42.616;23.350;2023-03-19T05:28:03;62129.19;;;1.28;84.23
6899;BME280;3488;42.616;23.350;2023-03-19T05:30:31;62146.06;;;1.42;84.56
6899;BME280;3488;42.616;23.350;2023-03-19T05:32:59;62151.69;;;1.47;84.32
6899;BME280;3488;42.616;23.350;2023-03-19T05:35:28;62165.50;;;1.58;84.11
6899;BME280;3488;42.616;23.350;2023-03-19T05:37:56;62173.72;;;1.66;85.13
6899;BME280;3488;42.616;23.350;2023-03-19T05:40:23;62180.03;;;1.80;84.63
6899;BME280;3488;42.616;23.350;2023-03-19T05:42:50;62169.78;;;1.70;83.68
6899;BME280;3488;42.616;23.350;2023-03-19T05:45:17;62182.06;;;1.79;83.80
6899;BME280;3488;42.616;23.350;2023-03-19T05:47:46;62185.13;;;1.82;84.57
6899;BME280;3488;42.616;23.350;2023-03-19T05:52:42;62185.13;;;1.82;83.67
6899;BME280;3488;42.616;23.350;2023-03-19T05:55:09;62181.00;;;1.78;83.33
6899;BME280;3488;42.616;23.350;2023-03-19T05:57:36;62190.72;;;1.85;83.24
6899;BME280;3488;42.616;23.350;2023-03-19T06:00:04;62199.06;;;1.98;82.59
6899;BME280;3488;42.616;23.350;2023-03-19T06:02:32;62201.56;;;1.98;81.16
6899;BME280;3488;42.616;23.350;2023-03-19T06:04:59;62209.69;;;2.04;81.45
6899;BME280;3488;42.616;23.350;2023-03-19T06:07:26;62201.50;;;1.96;80.89
6899;BME280;3488;42.616;23.350;2023-03-19T06:09:55;62205.09;;;1.99;81.36
6899;BME280;3488;42.616;23.350;2023-03-19T06:12:22;62208.69;;;2.03;81.72
6899;BME280;3488;42.616;23.350;2023-03-19T06:14:49;62205.59;;;2.00;82.10
6899;BME280;3488;42.616;23.350;2023-03-19T06:17:16;62204.13;;;2.01;83.58
6899;BME280;3488;42.616;23.350;2023-03-19T06:19:43;62212.22;;;2.04;84.62
6899;BME280;3488;42.616;23.350;2023-03-19T06:22:10;62235.91;;;2.29;84.34
6899;BME280;3488;42.616;23.350;2023-03-19T06:24:37;62238.91;;;2.30;83.14
6899;BME280;3488;42.616;23.350;2023-03-19T06:27:06;62243.06;;;2.36;83.26
6899;BME280;3488;42.616;23.350;2023-03-19T06:29:34;62261.56;;;2.55;81.77
6899;BME280;3488;42.616;23.350;2023-03-19T06:32:01;62269.28;;;2.62;81.22
6899;BME280;3488;42.616;23.350;2023-03-19T06:34:28;62283.53;;;2.71;80.62
6899;BME280;3488;42.616;23.350;2023-03-19T06:36:55;62287.84;;;2.83;79.35
6899;BME280;3488;42.616;23.350;2023-03-19T06:39:22;62309.41;;;3.04;77.65
6899;BME280;3488;42.616;23.350;2023-03-19T06:41:49;62312.53;;;3.09;77.61
6899;BME280;3488;42.616;23.350;2023-03-19T06:44:17;62334.06;;;3.28;77.02
6899;BME280;3488;42.616;23.350;2023-03-19T06:46:44;62335.09;;;3.29;75.86
6899;BME280;3488;42.616;23.350;2023-03-19T06:49:11;62355.00;;;3.41;76.08
6899;BME280;3488;42.616;23.350;2023-03-19T06:51:38;62364.41;;;3.58;75.15
6899;BME280;3488;42.616;23.350;2023-03-19T06:54:06;62378.34;;;3.74;73.70
6899;BME280;3488;42.616;23.350;2023-03-19T06:56:35;62394.75;;;3.87;71.78
6899;BME280;3488;42.616;23.350;2023-03-19T06:59:02;62416.25;;;4.03;70.35
6899;BME280;3488;42.616;23.350;2023-03-19T07:01:31;62409.72;;;4.04;70.61
6899;BME280;3488;42.616;23.350;2023-03-19T07:03:57;62438.47;;;4.30;69.91
6899;BME280;3488;42.616;23.350;2023-03-19T07:06:24;62457.41;;;4.43;68.30
6899;BME280;3488;42.616;23.350;2023-03-19T07:08:51;62448.66;;;4.35;67.54
6899;BME280;3488;42.616;23.350;2023-03-19T07:11:19;62448.75;;;4.40;67.20
6899;BME280;3488;42.616;23.350;2023-03-19T07:13:46;62464.19;;;4.55;67.06
6899;BME280;3488;42.616;23.350;2023-03-19T07:16:13;62486.28;;;4.74;66.32
6899;BME280;3488;42.616;23.350;2023-03-19T07:18:41;62483.19;;;4.71;65.29
6899;BME280;3488;42.616;23.350;2023-03-19T07:21:08;62481.16;;;4.71;64.00
6899;BME280;3488;42.616;23.350;2023-03-19T07:23:35;62481.13;;;4.69;64.67
6899;BME280;3488;42.616;23.350;2023-03-19T07:26:02;62452.31;;;4.41;64.68
6899;BME280;3488;42.616;23.350;2023-03-19T07:28:30;62443.22;;;4.39;64.74
6899;BME280;3488;42.616;23.350;2023-03-19T07:30:56;62470.72;;;4.54;65.55
6899;BME280;3488;42.616;23.350;2023-03-19T07:33:24;62478.50;;;4.64;64.72
6899;BME280;3488;42.616;23.350;2023-03-19T07:35:52;62467.81;;;4.58;64.74
6899;BME280;3488;42.616;23.350;2023-03-19T07:38:19;62480.06;;;4.65;63.78
6899;BME280;3488;42.616;23.350;2023-03-19T07:40:46;62484.78;;;4.75;63.67
6899;BME280;3488;42.616;23.350;2023-03-19T07:43:13;62489.34;;;4.77;62.62
6899;BME280;3488;42.616;23.350;2023-03-19T07:45:41;62503.25;;;4.91;62.59
6899;BME280;3488;42.616;23.350;2023-03-19T07:48:08;62502.28;;;4.92;62.10
6899;BME280;3488;42.616;23.350;2023-03-19T07:50:35;62510.47;;;4.98;62.43
6899;BME280;3488;42.616;23.350;2023-03-19T07:53:04;62523.91;;;5.13;62.12
6899;BME280;3488;42.616;23.350;2023-03-19T07:55:30;62533.63;;;5.20;61.83
6899;BME280;3488;42.616;23.350;2023-03-19T07:57:57;62551.16;;;5.37;60.88
6899;BME280;3488;42.616;23.350;2023-03-19T08:00:25;62565.06;;;5.51;60.34
6899;BME280;3488;42.616;23.350;2023-03-19T08:02:51;62594.44;;;5.79;59.64
6899;BME280;3488;42.616;23.350;2023-03-19T08:05:18;62614.50;;;5.97;59.21
6899;BME280;3488;42.616;23.350;2023-03-19T08:07:47;62608.41;;;5.96;59.00
6899;BME280;3488;42.616;23.350;2023-03-19T08:10:17;62593.50;;;5.83;58.61
6899;BME280;3488;42.616;23.350;2023-03-19T08:12:44;62597.53;;;5.82;59.04
6899;BME280;3488;42.616;23.350;2023-03-19T08:15:11;62621.28;;;6.08;58.65
6899;BME280;3488;42.616;23.350;2023-03-19T08:17:39;62640.88;;;6.27;58.31
6899;BME280;3488;42.616;23.350;2023-03-19T08:20:08;62616.13;;;6.03;57.94
6899;BME280;3488;42.616;23.350;2023-03-19T08:22:36;62608.41;;;5.96;58.35
6899;BME280;3488;42.616;23.350;2023-03-19T08:25:05;62633.66;;;6.20;58.09
6899;BME280;3488;42.616;23.350;2023-03-19T08:27:34;62650.56;;;6.32;57.76
6899;BME280;3488;42.616;23.350;2023-03-19T08:30:01;62660.47;;;6.46;57.53
6899;BME280;3488;42.616;23.350;2023-03-19T08:32:28;62673.81;;;6.57;56.64
6899;BME280;3488;42.616;23.350;2023-03-19T08:34:55;62678.41;;;6.59;56.56
6899;BME280;3488;42.616;23.350;2023-03-19T08:37:22;62680.56;;;6.66;56.13
6899;BME280;3488;42.616;23.350;2023-03-19T08:39:49;62694.41;;;6.74;55.90
6899;BME280;3488;42.616;23.350;2023-03-19T08:42:17;62725.91;;;7.07;55.33
6899;BME280;3488;42.616;23.350;2023-03-19T08:44:45;62730.09;;;7.14;53.69
6899;BME280;3488;42.616;23.350;2023-03-19T08:47:12;62732.16;;;7.16;54.02
6899;BME280;3488;42.616;23.350;2023-03-19T08:49:39;62750.56;;;7.27;53.82
6899;BME280;3488;42.616;23.350;2023-03-19T08:52:07;62758.97;;;7.42;53.09
6899;BME280;3488;42.616;23.350;2023-03-19T08:54:34;62771.78;;;7.50;52.79
6899;BME280;3488;42.616;23.350;2023-03-19T08:57:02;62761.03;;;7.44;53.12
6899;BME280;3488;42.616;23.350;2023-03-19T08:59:28;62773.38;;;7.54;53.92
6899;BME280;3488;42.616;23.350;2023-03-19T09:01:57;62775.38;;;7.53;53.24
6899;BME280;3488;42.616;23.350;2023-03-19T09:04:24;62791.44;;;7.71;54.28
6899;BME280;3488;42.616;23.350;2023-03-19T09:06:51;62799.19;;;7.79;52.89
6899;BME280;3488;42.616;23.350;2023-03-19T09:09:20;62781.69;;;7.64;53.04
6899;BME280;3488;42.616;23.350;2023-03-19T09:11:48;62802.25;;;7.82;53.04
6899;BME280;3488;42.616;23.350;2023-03-19T09:14:15;62787.34;;;7.70;52.95
6899;BME280;3488;42.616;23.350;2023-03-19T09:16:44;62802.22;;;7.79;52.95
6899;BME280;3488;42.616;23.350;2023-03-19T09:19:13;62808.41;;;7.85;52.84
6899;BME280;3488;42.616;23.350;2023-03-19T09:21:40;62814.72;;;7.96;51.84
6899;BME280;3488;42.616;23.350;2023-03-19T09:24:09;62834.75;;;8.11;52.09
6899;BME280;3488;42.616;23.350;2023-03-19T09:26:36;62850.28;;;8.26;52.07
6899;BME280;3488;42.616;23.350;2023-03-19T09:29:03;62849.38;;;8.33;51.22
6899;BME280;3488;42.616;23.350;2023-03-19T09:31:32;62847.22;;;8.26;51.15
6899;BME280;3488;42.616;23.350;2023-03-19T09:34:01;62850.78;;;8.27;51.11
6899;BME280;3488;42.616;23.350;2023-03-19T09:36:30;62877.06;;;8.50;50.76
6899;BME280;3488;42.616;23.350;2023-03-19T09:38:56;62874.63;;;8.55;50.94
6899;BME280;3488;42.616;23.350;2023-03-19T09:41:30;62893.19;;;8.70;49.79
6899;BME280;3488;42.616;23.350;2023-03-19T09:44:01;62897.31;;;8.74;50.27
6899;BME280;3488;42.616;23.350;2023-03-19T09:46:39;62908.13;;;8.82;50.70
6899;BME280;3488;42.616;23.350;2023-03-19T09:49:19;62932.91;;;9.06;48.99
6899;BME280;3488;42.616;23.350;2023-03-19T09:51:51;62943.78;;;9.17;47.43
6899;BME280;3488;42.616;23.350;2023-03-19T09:54:26;62935.53;;;9.11;47.26
6899;BME280;3488;42.616;23.350;2023-03-19T09:56:55;62925.66;;;8.97;47.84
6899;BME280;3488;42.616;23.350;2023-03-19T09:59:23;62932.44;;;9.08;48.02
6899;BME280;3488;42.616;23.350;2023-03-19T10:02:03;62951.06;;;9.26;47.70
6899;BME280;3488;42.616;23.350;2023-03-19T10:04:43;62963.94;;;9.37;47.59
6899;BME280;3488;42.616;23.350;2023-03-19T10:07:23;62998.06;;;9.70;46.08
6899;BME280;3488;42.616;23.350;2023-03-19T10:10:29;63001.72;;;9.76;45.79
6899;BME280;3488;42.616;23.350;2023-03-19T10:13:08;63005.41;;;9.82;46.53
6899;BME280;3488;42.616;23.350;2023-03-19T10:15:39;63034.38;;;10.10;45.73
6899;BME280;3488;42.616;23.350;2023-03-19T10:18:10;63029.09;;;10.00;45.63
6899;BME280;3488;42.616;23.350;2023-03-19T10:20:48;63042.56;;;10.13;44.84
6899;BME280;3488;42.616;23.350;2023-03-19T10:23:28;63045.19;;;10.18;45.04
6899;BME280;3488;42.616;23.350;2023-03-19T10:25:59;63066.88;;;10.36;45.74
6899;BME280;3488;42.616;23.350;2023-03-19T10:28:28;63073.16;;;10.47;45.49
6899;BME280;3488;42.616;23.350;2023-03-19T10:31:03;63098.50;;;10.70;45.01
6899;BME280;3488;42.616;23.350;2023-03-19T10:33:41;63101.53;;;10.70;44.68
6899;BME280;3488;42.616;23.350;2023-03-19T10:36:11;63133.13;;;11.01;42.30
6899;BME280;3488;42.616;23.350;2023-03-19T10:38:42;63116.59;;;10.87;43.85
6899;BME280;3488;42.616;23.350;2023-03-19T10:41:30;63129.50;;;10.97;43.73
6899;BME280;3488;42.616;23.350;2023-03-19T10:44:02;63145.06;;;11.15;43.29
6899;BME280;3488;42.616;23.350;2023-03-19T10:46:36;63167.88;;;11.37;42.25
6899;BME280;3488;42.616;23.350;2023-03-19T10:49:04;63158.56;;;11.30;42.70
6899;BME280;3488;42.616;23.350;2023-03-19T10:51:37;63174.53;;;11.41;42.54
6899;BME280;3488;42.616;23.350;2023-03-19T10:54:17;63149.19;;;11.16;42.47
6899;BME280;3488;42.616;23.350;2023-03-19T10:56:46;63148.75;;;11.23;42.62
6899;BME280;3488;42.616;23.350;2023-03-19T10:59:21;63178.75;;;11.47;42.37
6899;BME280;3488;42.616;23.350;2023-03-19T11:01:48;63184.94;;;11.53;42.07
6899;BME280;3488;42.616;23.350;2023-03-19T11:04:18;63202.06;;;11.70;41.96
6899;BME280;3488;42.616;23.350;2023-03-19T11:06:48;63215.00;;;11.83;41.84
6899;BME280;3488;42.616;23.350;2023-03-19T11:09:24;63249.66;;;12.11;41.69
6899;BME280;3488;42.616;23.350;2023-03-19T11:11:57;63259.09;;;12.28;40.94
6899;BME280;3488;42.616;23.350;2023-03-19T11:14:30;63273.00;;;12.36;41.13
6899;BME280;3488;42.616;23.350;2023-03-19T11:17:04;63283.38;;;12.46;41.26
6899;BME280;3488;42.616;23.350;2023-03-19T11:19:34;63273.53;;;12.37;40.22
6899;BME280;3488;42.616;23.350;2023-03-19T11:22:14;63278.25;;;12.46;40.43
6899;BME280;3488;42.616;23.350;2023-03-19T11:24:49;63282.84;;;12.46;39.54
6899;BME280;3488;42.616;23.350;2023-03-19T11:27:17;63283.44;;;12.51;40.51
6899;BME280;3488;42.616;23.350;2023-03-19T11:29:44;63297.97;;;12.65;39.87
6899;BME280;3488;42.616;23.350;2023-03-19T11:32:22;63289.59;;;12.52;39.33
6899;BME280;3488;42.616;23.350;2023-03-19T11:34:53;63311.34;;;12.73;38.88
6899;BME280;3488;42.616;23.350;2023-03-19T11:37:29;63303.16;;;12.70;38.57
6899;BME280;3488;42.616;23.350;2023-03-19T11:40:08;63286.53;;;12.52;39.18
6899;BME280;3488;42.616;23.350;2023-03-19T11:42:58;63294.34;;;12.62;40.31
6899;BME280;3488;42.616;23.350;2023-03-19T11:45:32;63293.72;;;12.56;38.80
6899;BME280;3488;42.616;23.350;2023-03-19T11:48:15;63320.22;;;12.85;38.13
6899;BME280;3488;42.616;23.350;2023-03-19T11:50:49;63318.19;;;12.85;38.19
6899;BME280;3488;42.616;23.350;2023-03-19T11:53:24;63322.81;;;12.87;38.10
6899;BME280;3488;42.616;23.350;2023-03-19T11:56:01;63323.81;;;12.86;38.38
6899;BME280;3488;42.616;23.350;2023-03-19T11:58:44;63344.59;;;13.06;37.66
6899;BME280;3488;42.616;23.350;2023-03-19T12:01:26;63340.97;;;13.05;38.13
6899;BME280;3488;42.616;23.350;2023-03-19T12:04:17;63355.00;;;13.18;38.17
6899;BME280;3488;42.616;23.350;2023-03-19T12:06:52;63358.66;;;13.24;37.42
6899;BME280;3488;42.616;23.350;2023-03-19T12:09:28;63377.25;;;13.37;37.56
6899;BME280;3488;42.616;23.350;2023-03-19T12:12:09;63394.94;;;13.57;38.33
6899;BME280;3488;42.616;23.350;2023-03-19T12:14:49;63366.41;;;13.29;37.90
6899;BME280;3488;42.616;23.350;2023-03-19T12:17:33;63386.66;;;13.51;36.76
6899;BME280;3488;42.616;23.350;2023-03-19T12:20:17;63410.50;;;13.72;37.28
6899;BME280;3488;42.616;23.350;2023-03-19T12:23:11;63425.59;;;13.89;36.39
6899;BME280;3488;42.616;23.350;2023-03-19T12:25:48;63450.97;;;14.11;36.92
6899;BME280;3488;42.616;23.350;2023-03-19T12:28:25;63459.81;;;14.20;36.00
6899;BME280;3488;42.616;23.350;2023-03-19T12:34:08;63471.75;;;14.29;36.08
6899;BME280;3488;42.616;23.350;2023-03-19T12:36:44;63455.63;;;14.13;36.09
6899;BME280;3488;42.616;23.350;2023-03-19T12:39:18;63473.38;;;14.35;37.29
6899;BME280;3488;42.616;23.350;2023-03-19T12:41:48;63468.69;;;14.31;37.33
6899;BME280;3488;42.616;23.350;2023-03-19T12:44:21;63467.59;;;14.27;35.95
6899;BME280;3488;42.616;23.350;2023-03-19T12:46:55;63475.94;;;14.38;36.50
6899;BME280;3488;42.616;23.350;2023-03-19T12:49:27;63478.50;;;14.38;36.02
6899;BME280;3488;42.616;23.350;2023-03-19T12:51:58;63498.81;;;14.60;35.09
6899;BME280;3488;42.616;23.350;2023-03-19T12:54:28;63495.13;;;14.54;35.52
6899;BME280;3488;42.616;23.350;2023-03-19T12:57:03;63525.28;;;14.85;34.76
6899;BME280;3488;42.616;23.350;2023-03-19T12:59:37;63550.22;;;15.10;34.52
6899;BME280;3488;42.616;23.350;2023-03-19T13:02:15;63574.59;;;15.31;33.82
6899;BME280;3488;42.616;23.350;2023-03-19T13:04:51;63567.88;;;15.27;34.52
6899;BME280;3488;42.616;23.350;2023-03-19T13:07:25;63503.41;;;14.59;35.04
6899;BME280;3488;42.616;23.350;2023-03-19T13:09:59;63515.34;;;14.71;35.47
6899;BME280;3488;42.616;23.350;2023-03-19T13:12:28;63534.00;;;14.86;35.40
6899;BME280;3488;42.616;23.350;2023-03-19T13:15:01;63555.84;;;15.10;34.70
6899;BME280;3488;42.616;23.350;2023-03-19T13:17:38;63587.06;;;15.40;35.43
6899;BME280;3488;42.616;23.350;2023-03-19T13:20:16;63578.31;;;15.39;34.70
6899;BME280;3488;42.616;23.350;2023-03-19T13:22:50;63580.84;;;15.37;34.41
6899;BME280;3488;42.616;23.350;2023-03-19T13:25:22;63557.47;;;15.14;34.41
6899;BME280;3488;42.616;23.350;2023-03-19T13:27:52;63563.69;;;15.20;34.42
6899;BME280;3488;42.616;23.350;2023-03-19T13:30:22;63580.88;;;15.39;34.20
6899;BME280;3488;42.616;23.350;2023-03-19T13:32:52;63595.97;;;15.54;34.38
6899;BME280;3488;42.616;23.350;2023-03-19T13:35:39;63634.88;;;15.84;34.05
6899;BME280;3488;42.616;23.350;2023-03-19T13:38:17;63634.88;;;15.84;33.46
6899;BME280;3488;42.616;23.350;2023-03-19T13:40:47;63635.41;;;15.87;33.72